createdAt,value
2018-06-02T00:00:04.709Z,30.65
2018-06-02T00:00:17.131Z,30.65
2018-06-02T00:00:29.578Z,30.65
2018-06-02T00:00:42.112Z,30.65
2018-06-02T00:00:54.550Z,30.65
2018-06-02T00:01:07.007Z,30.65
2018-06-02T00:01:19.436Z,24.23
2018-06-02T00:01:31.868Z,24.23
2018-06-02T00:01:44.346Z,24.23
2018-06-02T00:01:56.769Z,24.23
2018-06-02T00:02:09.223Z,24.23
2018-06-02T00:02:21.657Z,24.23
2018-06-02T00:02:34.125Z,24.23
2018-06-02T00:02:46.555Z,24.23
2018-06-02T00:02:58.994Z,24.23
2018-06-02T00:03:11.411Z,24.23
2018-06-02T00:03:23.851Z,24.23
2018-06-02T00:03:36.265Z,24.23
2018-06-02T00:03:48.681Z,24.23
2018-06-02T00:04:01.142Z,24.23
2018-06-02T00:04:13.559Z,24.23
2018-06-02T00:04:26.038Z,24.23
2018-06-02T00:04:38.505Z,24.23
2018-06-02T00:04:50.931Z,24.23
2018-06-02T00:05:03.354Z,24.23
2018-06-02T00:05:15.795Z,24.23
2018-06-02T00:05:28.203Z,24.23
2018-06-02T00:05:40.648Z,24.23
2018-06-02T00:05:53.092Z,24.23
2018-06-02T00:06:05.533Z,24.23
2018-06-02T00:06:17.956Z,24.23
2018-06-02T00:06:30.383Z,24.23
2018-06-02T00:06:42.816Z,24.23
2018-06-02T00:06:55.277Z,24.23
2018-06-02T00:07:07.694Z,24.23
2018-06-02T00:07:20.163Z,24.23
2018-06-02T00:07:32.588Z,24.23
2018-06-02T00:07:45.026Z,24.23
2018-06-02T00:07:57.454Z,24.23
2018-06-02T00:08:09.872Z,24.23
2018-06-02T00:08:22.340Z,24.23
2018-06-02T00:08:34.787Z,24.23
2018-06-02T00:08:47.184Z,24.23
2018-06-02T00:08:59.596Z,24.23
2018-06-02T00:09:11.996Z,24.23
2018-06-02T00:09:24.421Z,24.23
2018-06-02T00:09:36.848Z,24.23
2018-06-02T00:09:49.555Z,24.23
2018-06-02T00:10:01.962Z,24.23
2018-06-02T00:10:14.401Z,24.23
2018-06-02T00:10:26.852Z,24.23
2018-06-02T00:10:39.263Z,24.23
2018-06-02T00:10:51.747Z,24.23
2018-06-02T00:11:04.286Z,24.23
2018-06-02T00:11:17.412Z,24.23
2018-06-02T00:11:30.387Z,27.1
2018-06-02T00:11:42.868Z,27.1
2018-06-02T00:11:55.275Z,27.1
2018-06-02T00:12:07.698Z,27.1
2018-06-02T00:12:20.109Z,27.1
2018-06-02T00:12:32.522Z,27.1
2018-06-02T00:12:44.963Z,27.1
2018-06-02T00:12:57.412Z,27.1
2018-06-02T00:13:09.835Z,27.1
2018-06-02T00:13:22.295Z,27.1
2018-06-02T00:13:34.729Z,27.1
2018-06-02T00:13:47.156Z,27.1
2018-06-02T00:13:59.589Z,27.1
2018-06-02T00:14:12.009Z,27.1
2018-06-02T00:14:24.412Z,27.1
2018-06-02T00:14:36.919Z,27.1
2018-06-02T00:14:49.431Z,27.1
2018-06-02T00:15:01.854Z,27.1
2018-06-02T00:15:14.313Z,27.1
2018-06-02T00:15:26.734Z,27.1
2018-06-02T00:15:39.156Z,27.1
2018-06-02T00:15:51.580Z,27.1
2018-06-02T00:16:03.999Z,27.1
2018-06-02T00:16:16.422Z,27.1
2018-06-02T00:16:28.829Z,27.1
2018-06-02T00:16:41.275Z,27.1
2018-06-02T00:16:53.720Z,27.1
2018-06-02T00:17:06.141Z,27.1
2018-06-02T00:17:18.579Z,27.1
2018-06-02T00:17:30.987Z,27.1
2018-06-02T00:17:43.426Z,27.1
2018-06-02T00:17:55.841Z,27.1
2018-06-02T00:18:08.268Z,27.1
2018-06-02T00:18:20.768Z,27.1
2018-06-02T00:18:33.203Z,27.1
2018-06-02T00:18:45.630Z,27.1
2018-06-02T00:18:58.070Z,27.1
2018-06-02T00:19:10.501Z,27.1
2018-06-02T00:19:22.908Z,27.1
2018-06-02T00:19:35.349Z,27.1
2018-06-02T00:19:47.776Z,27.1
2018-06-02T00:20:00.196Z,27.1
2018-06-02T00:20:12.607Z,27.1
2018-06-02T00:20:25.016Z,27.1
2018-06-02T00:20:37.434Z,27.1
2018-06-02T00:20:49.867Z,27.1
2018-06-02T00:21:02.271Z,27.1
2018-06-02T00:21:14.695Z,27.1
2018-06-02T00:21:27.106Z,30.87
2018-06-02T00:21:39.529Z,30.87
2018-06-02T00:21:51.952Z,30.87
2018-06-02T00:22:04.459Z,30.87
2018-06-02T00:22:16.874Z,30.87
2018-06-02T00:22:29.285Z,30.87
2018-06-02T00:22:41.711Z,30.87
2018-06-02T00:22:54.135Z,30.87
2018-06-02T00:23:06.573Z,30.87
2018-06-02T00:23:19.039Z,30.87
2018-06-02T00:23:31.454Z,30.87
2018-06-02T00:23:43.878Z,30.87
2018-06-02T00:23:56.346Z,30.87
2018-06-02T00:24:08.741Z,30.87
2018-06-02T00:24:21.151Z,30.87
2018-06-02T00:24:33.563Z,30.87
2018-06-02T00:24:45.994Z,30.87
2018-06-02T00:24:58.446Z,30.87
2018-06-02T00:25:10.866Z,30.87
2018-06-02T00:25:23.315Z,30.87
2018-06-02T00:25:35.753Z,30.87
2018-06-02T00:25:48.302Z,30.87
2018-06-02T00:26:00.757Z,30.87
2018-06-02T00:26:13.202Z,30.87
2018-06-02T00:26:25.662Z,30.87
2018-06-02T00:26:38.064Z,30.87
2018-06-02T00:26:50.497Z,30.87
2018-06-02T00:27:02.928Z,30.87
2018-06-02T00:27:15.344Z,30.87
2018-06-02T00:27:27.773Z,30.87
2018-06-02T00:27:40.185Z,30.87
2018-06-02T00:27:52.595Z,30.87
2018-06-02T00:28:05.047Z,30.87
2018-06-02T00:28:17.498Z,30.87
2018-06-02T00:28:30.032Z,30.87
2018-06-02T00:28:42.436Z,30.87
2018-06-02T00:28:54.839Z,30.87
2018-06-02T00:29:07.244Z,30.87
2018-06-02T00:29:19.651Z,30.87
2018-06-02T00:29:32.077Z,30.87
2018-06-02T00:29:44.527Z,30.87
2018-06-02T00:29:56.974Z,30.87
2018-06-02T00:30:09.389Z,30.87
2018-06-02T00:30:21.784Z,30.87
2018-06-02T00:30:34.224Z,30.87
2018-06-02T00:30:46.625Z,30.87
2018-06-02T00:30:59.048Z,30.87
2018-06-02T00:31:11.457Z,30.87
2018-06-02T00:31:23.880Z,28.52
2018-06-02T00:31:36.294Z,28.52
2018-06-02T00:31:48.716Z,28.52
2018-06-02T00:32:01.121Z,28.52
2018-06-02T00:32:13.556Z,28.52
2018-06-02T00:32:25.975Z,28.52
2018-06-02T00:32:38.402Z,28.52
2018-06-02T00:32:50.808Z,28.52
2018-06-02T00:33:03.262Z,28.52
2018-06-02T00:33:15.680Z,28.52
2018-06-02T00:33:28.104Z,28.52
2018-06-02T00:33:40.499Z,28.52
2018-06-02T00:33:53.295Z,28.52
2018-06-02T00:34:05.722Z,28.52
2018-06-02T00:34:18.177Z,28.52
2018-06-02T00:34:30.609Z,28.52
2018-06-02T00:34:43.053Z,28.52
2018-06-02T00:34:55.505Z,28.52
2018-06-02T00:35:08.070Z,28.52
2018-06-02T00:35:20.534Z,28.52
2018-06-02T00:35:33.004Z,28.52
2018-06-02T00:35:45.441Z,28.52
2018-06-02T00:35:57.871Z,28.52
2018-06-02T00:36:10.285Z,28.52
2018-06-02T00:36:22.711Z,28.52
2018-06-02T00:36:35.129Z,28.52
2018-06-02T00:36:47.548Z,28.52
2018-06-02T00:36:59.958Z,28.52
2018-06-02T00:37:12.388Z,28.52
2018-06-02T00:37:24.811Z,28.52
2018-06-02T00:37:37.228Z,28.52
2018-06-02T00:37:49.639Z,28.52
2018-06-02T00:38:02.119Z,28.52
2018-06-02T00:38:14.543Z,28.52
2018-06-02T00:38:26.960Z,28.52
2018-06-02T00:38:39.378Z,28.52
2018-06-02T00:38:51.792Z,28.52
2018-06-02T00:39:04.234Z,28.52
2018-06-02T00:39:16.650Z,28.52
2018-06-02T00:39:29.077Z,28.52
2018-06-02T00:39:41.526Z,28.52
2018-06-02T00:39:53.976Z,28.52
2018-06-02T00:40:06.432Z,28.52
2018-06-02T00:40:18.856Z,28.52
2018-06-02T00:40:31.279Z,28.52
2018-06-02T00:40:43.695Z,28.52
2018-06-02T00:40:56.117Z,28.52
2018-06-02T00:41:09.049Z,28.52
2018-06-02T00:41:21.495Z,29.45
2018-06-02T00:41:33.912Z,29.45
2018-06-02T00:41:46.321Z,29.45
2018-06-02T00:41:58.738Z,29.45
2018-06-02T00:42:11.189Z,29.45
2018-06-02T00:42:23.636Z,29.45
2018-06-02T00:42:36.216Z,29.45
2018-06-02T00:42:48.789Z,29.45
2018-06-02T00:43:01.220Z,29.45
2018-06-02T00:43:13.674Z,29.45
2018-06-02T00:43:26.088Z,29.45
2018-06-02T00:43:38.527Z,29.45
2018-06-02T00:43:50.933Z,29.45
2018-06-02T00:44:03.401Z,29.45
2018-06-02T00:44:15.807Z,29.45
2018-06-02T00:44:28.208Z,29.45
2018-06-02T00:44:40.629Z,29.45
2018-06-02T00:44:53.048Z,29.45
2018-06-02T00:45:05.461Z,29.45
2018-06-02T00:45:17.867Z,29.45
2018-06-02T00:45:30.277Z,29.45
2018-06-02T00:45:42.700Z,29.45
2018-06-02T00:45:55.099Z,29.45
2018-06-02T00:46:07.524Z,29.45
2018-06-02T00:46:19.943Z,29.45
2018-06-02T00:46:32.376Z,29.45
2018-06-02T00:46:44.778Z,29.45
2018-06-02T00:46:57.189Z,29.45
2018-06-02T00:47:09.605Z,29.45
2018-06-02T00:47:22.041Z,29.45
2018-06-02T00:47:34.450Z,29.45
2018-06-02T00:47:46.901Z,29.45
2018-06-02T00:47:59.316Z,29.45
2018-06-02T00:48:11.728Z,29.45
2018-06-02T00:48:24.153Z,29.45
2018-06-02T00:48:36.708Z,29.45
2018-06-02T00:48:49.129Z,29.45
2018-06-02T00:49:01.549Z,29.45
2018-06-02T00:49:14.022Z,29.45
2018-06-02T00:49:26.447Z,29.45
2018-06-02T00:49:38.982Z,29.45
2018-06-02T00:49:51.458Z,29.45
2018-06-02T00:50:03.894Z,29.45
2018-06-02T00:50:16.573Z,29.45
2018-06-02T00:50:28.975Z,29.45
2018-06-02T00:50:41.401Z,29.45
2018-06-02T00:50:53.827Z,29.45
2018-06-02T00:51:06.264Z,29.45
2018-06-02T00:51:18.665Z,29.45
2018-06-02T00:51:31.090Z,24.93
2018-06-02T00:51:43.516Z,24.93
2018-06-02T00:51:55.936Z,24.93
2018-06-02T00:52:08.367Z,24.93
2018-06-02T00:52:20.788Z,24.93
2018-06-02T00:52:33.198Z,24.93
2018-06-02T00:52:45.741Z,24.93
2018-06-02T00:52:58.150Z,24.93
2018-06-02T00:53:10.595Z,24.93
2018-06-02T00:53:23.020Z,24.93
2018-06-02T00:53:35.440Z,24.93
2018-06-02T00:53:47.889Z,24.93
2018-06-02T00:54:00.301Z,24.93
2018-06-02T00:54:12.735Z,24.93
2018-06-02T00:54:25.160Z,24.93
2018-06-02T00:54:37.569Z,24.93
2018-06-02T00:54:49.985Z,24.93
2018-06-02T00:55:02.404Z,24.93
2018-06-02T00:55:14.817Z,24.93
2018-06-02T00:55:27.224Z,24.93
2018-06-02T00:55:39.640Z,24.93
2018-06-02T00:55:52.151Z,24.93
2018-06-02T00:56:04.554Z,24.93
2018-06-02T00:56:17.014Z,24.93
2018-06-02T00:56:29.541Z,24.93
2018-06-02T00:56:41.975Z,24.93
2018-06-02T00:56:54.385Z,24.93
2018-06-02T00:57:06.847Z,24.93
2018-06-02T00:57:19.259Z,24.93
2018-06-02T00:57:31.687Z,24.93
2018-06-02T00:57:44.112Z,24.93
2018-06-02T00:57:56.517Z,24.93
2018-06-02T00:58:08.928Z,24.93
2018-06-02T00:58:21.542Z,24.93
2018-06-02T00:58:33.951Z,24.93
2018-06-02T00:58:46.389Z,24.93
2018-06-02T00:58:58.807Z,24.93
2018-06-02T00:59:11.224Z,24.93
2018-06-02T00:59:23.629Z,24.93
2018-06-02T00:59:36.047Z,24.93
2018-06-02T00:59:48.451Z,24.93
2018-06-02T01:00:00.914Z,24.93
2018-06-02T01:00:13.362Z,24.93
2018-06-02T01:00:25.773Z,24.93
2018-06-02T01:00:38.296Z,24.93
2018-06-02T01:00:50.768Z,24.93
2018-06-02T01:01:03.226Z,24.93
2018-06-02T01:01:15.701Z,24.93
2018-06-02T01:01:28.148Z,23.56
2018-06-02T01:01:40.563Z,23.56
2018-06-02T01:01:53.016Z,23.56
2018-06-02T01:02:05.445Z,23.56
2018-06-02T01:02:17.878Z,23.56
2018-06-02T01:02:30.303Z,23.56
2018-06-02T01:02:42.719Z,23.56
2018-06-02T01:02:55.159Z,23.56
2018-06-02T01:03:07.644Z,23.56
2018-06-02T01:03:20.077Z,23.56
2018-06-02T01:03:32.556Z,23.56
2018-06-02T01:03:45.021Z,23.56
2018-06-02T01:03:57.462Z,23.56
2018-06-02T01:04:09.895Z,23.56
2018-06-02T01:04:22.300Z,23.56
2018-06-02T01:04:34.714Z,23.56
2018-06-02T01:04:47.137Z,23.56
2018-06-02T01:04:59.577Z,23.56
2018-06-02T01:05:12.010Z,23.56
2018-06-02T01:05:24.420Z,23.56
2018-06-02T01:05:37.105Z,23.56
2018-06-02T01:05:49.518Z,23.56
2018-06-02T01:06:01.946Z,23.56
2018-06-02T01:06:14.396Z,23.56
2018-06-02T01:06:26.863Z,23.56
2018-06-02T01:06:39.282Z,23.56
2018-06-02T01:06:51.700Z,23.56
2018-06-02T01:07:04.141Z,23.56
2018-06-02T01:07:16.561Z,23.56
2018-06-02T01:07:29.049Z,23.56
2018-06-02T01:07:41.479Z,23.56
2018-06-02T01:07:53.914Z,23.56
2018-06-02T01:08:06.377Z,23.56
2018-06-02T01:08:18.817Z,23.56
2018-06-02T01:08:31.251Z,23.56
2018-06-02T01:08:43.670Z,23.56
2018-06-02T01:08:56.131Z,23.56
2018-06-02T01:09:08.585Z,23.56
2018-06-02T01:09:21.069Z,23.56
2018-06-02T01:09:33.533Z,23.56
2018-06-02T01:09:45.949Z,23.56
2018-06-02T01:09:58.823Z,23.56
2018-06-02T01:10:11.274Z,23.56
2018-06-02T01:10:23.713Z,23.56
2018-06-02T01:10:36.220Z,23.56
2018-06-02T01:10:48.815Z,23.56
2018-06-02T01:11:01.237Z,23.56
2018-06-02T01:11:13.663Z,23.56
2018-06-02T01:11:26.071Z,23.55
2018-06-02T01:11:38.503Z,23.55
2018-06-02T01:11:50.912Z,23.55
2018-06-02T01:12:03.314Z,23.55
2018-06-02T01:12:15.734Z,23.55
2018-06-02T01:12:28.167Z,23.55
2018-06-02T01:12:40.576Z,23.55
2018-06-02T01:12:53.007Z,23.55
2018-06-02T01:13:05.433Z,23.55
2018-06-02T01:13:17.858Z,23.55
2018-06-02T01:13:30.279Z,23.55
2018-06-02T01:13:42.708Z,23.55
2018-06-02T01:13:55.136Z,23.55
2018-06-02T01:14:07.561Z,23.55
2018-06-02T01:14:19.991Z,23.55
2018-06-02T01:14:32.454Z,23.55
2018-06-02T01:14:44.882Z,23.55
2018-06-02T01:14:57.312Z,23.55
2018-06-02T01:15:09.731Z,23.55
2018-06-02T01:15:22.175Z,23.55
2018-06-02T01:15:34.588Z,23.55
2018-06-02T01:15:47.076Z,23.55
2018-06-02T01:15:59.470Z,23.55
2018-06-02T01:16:11.897Z,23.55
2018-06-02T01:16:24.319Z,23.55
2018-06-02T01:16:36.727Z,23.55
2018-06-02T01:16:49.131Z,23.55
2018-06-02T01:17:01.557Z,23.55
2018-06-02T01:17:13.981Z,23.55
2018-06-02T01:17:26.398Z,23.55
2018-06-02T01:17:38.816Z,23.55
2018-06-02T01:17:51.321Z,23.55
2018-06-02T01:18:03.746Z,23.55
2018-06-02T01:18:16.339Z,23.55
2018-06-02T01:18:28.756Z,23.55
2018-06-02T01:18:41.159Z,23.55
2018-06-02T01:18:53.576Z,23.55
2018-06-02T01:19:06.092Z,23.55
2018-06-02T01:19:18.518Z,23.55
2018-06-02T01:19:30.949Z,23.55
2018-06-02T01:19:43.361Z,23.55
2018-06-02T01:19:55.785Z,23.55
2018-06-02T01:20:08.236Z,23.55
2018-06-02T01:20:20.652Z,23.55
2018-06-02T01:20:33.108Z,23.55
2018-06-02T01:20:45.690Z,23.55
2018-06-02T01:20:58.668Z,23.55
2018-06-02T01:21:11.085Z,23.55
2018-06-02T01:21:23.496Z,24.37
2018-06-02T01:21:35.915Z,24.37
2018-06-02T01:21:48.341Z,24.37
2018-06-02T01:22:00.759Z,24.37
2018-06-02T01:22:13.183Z,24.37
2018-06-02T01:22:25.577Z,24.37
2018-06-02T01:22:37.990Z,24.37
2018-06-02T01:22:50.456Z,24.37
2018-06-02T01:23:02.869Z,24.37
2018-06-02T01:23:15.287Z,24.37
2018-06-02T01:23:27.699Z,24.37
2018-06-02T01:23:40.126Z,24.37
2018-06-02T01:23:52.540Z,24.37
2018-06-02T01:24:05.051Z,24.37
2018-06-02T01:24:17.471Z,24.37
2018-06-02T01:24:29.947Z,24.37
2018-06-02T01:24:42.351Z,24.37
2018-06-02T01:24:54.775Z,24.37
2018-06-02T01:25:07.211Z,24.37
2018-06-02T01:25:19.649Z,24.37
2018-06-02T01:25:32.083Z,24.37
2018-06-02T01:25:44.661Z,24.37
2018-06-02T01:25:57.071Z,24.37
2018-06-02T01:26:09.526Z,24.37
2018-06-02T01:26:21.966Z,24.37
2018-06-02T01:26:34.380Z,24.37
2018-06-02T01:26:46.789Z,24.37
2018-06-02T01:26:59.262Z,24.37
2018-06-02T01:27:11.714Z,24.37
2018-06-02T01:27:24.145Z,24.37
2018-06-02T01:27:36.546Z,24.37
2018-06-02T01:27:48.979Z,24.37
2018-06-02T01:28:01.395Z,24.37
2018-06-02T01:28:13.797Z,24.37
2018-06-02T01:28:26.238Z,24.37
2018-06-02T01:28:38.674Z,24.37
2018-06-02T01:28:51.182Z,24.37
2018-06-02T01:29:03.601Z,24.37
2018-06-02T01:29:16.037Z,24.37
2018-06-02T01:29:28.460Z,24.37
2018-06-02T01:29:40.902Z,24.37
2018-06-02T01:29:53.348Z,24.37
2018-06-02T01:30:05.770Z,24.37
2018-06-02T01:30:18.186Z,24.37
2018-06-02T01:30:30.616Z,24.37
2018-06-02T01:30:43.067Z,24.37
2018-06-02T01:30:55.487Z,24.37
2018-06-02T01:31:07.929Z,24.37
2018-06-02T01:31:20.366Z,24.37
2018-06-02T01:31:32.818Z,22.27
2018-06-02T01:31:45.264Z,22.27
2018-06-02T01:31:57.716Z,22.27
2018-06-02T01:32:10.188Z,22.27
2018-06-02T01:32:22.648Z,22.27
2018-06-02T01:32:35.088Z,22.27
2018-06-02T01:32:47.661Z,22.27
2018-06-02T01:33:00.113Z,22.27
2018-06-02T01:33:12.546Z,22.27
2018-06-02T01:33:24.952Z,22.27
2018-06-02T01:33:37.372Z,22.27
2018-06-02T01:33:49.795Z,22.27
2018-06-02T01:34:02.229Z,22.27
2018-06-02T01:34:14.671Z,22.27
2018-06-02T01:34:27.266Z,22.27
2018-06-02T01:34:39.666Z,22.27
2018-06-02T01:34:52.089Z,22.27
2018-06-02T01:35:04.707Z,22.27
2018-06-02T01:35:17.182Z,22.27
2018-06-02T01:35:29.641Z,22.27
2018-06-02T01:35:42.074Z,22.27
2018-06-02T01:35:54.524Z,22.27
2018-06-02T01:36:06.975Z,22.27
2018-06-02T01:36:19.396Z,22.27
2018-06-02T01:36:31.832Z,22.27
2018-06-02T01:36:44.256Z,22.27
2018-06-02T01:36:56.680Z,22.27
2018-06-02T01:37:09.096Z,22.27
2018-06-02T01:37:21.634Z,22.27
2018-06-02T01:37:34.055Z,22.27
2018-06-02T01:37:46.474Z,22.27
2018-06-02T01:37:58.906Z,22.27
2018-06-02T01:38:11.334Z,22.27
2018-06-02T01:38:23.744Z,22.27
2018-06-02T01:38:36.175Z,22.27
2018-06-02T01:38:48.596Z,22.27
2018-06-02T01:39:00.998Z,22.27
2018-06-02T01:39:13.471Z,22.27
2018-06-02T01:39:25.896Z,22.27
2018-06-02T01:39:38.308Z,22.27
2018-06-02T01:39:50.805Z,22.27
2018-06-02T01:40:03.251Z,22.27
2018-06-02T01:40:15.650Z,22.27
2018-06-02T01:40:28.074Z,22.27
2018-06-02T01:40:40.518Z,22.27
2018-06-02T01:40:52.927Z,22.27
2018-06-02T01:41:05.382Z,22.27
2018-06-02T01:41:18.043Z,22.27
2018-06-02T01:41:30.466Z,23.88
2018-06-02T01:41:42.869Z,23.88
2018-06-02T01:41:55.287Z,23.88
2018-06-02T01:42:07.716Z,23.88
2018-06-02T01:42:20.144Z,23.88
2018-06-02T01:42:32.564Z,23.88
2018-06-02T01:42:45.156Z,23.88
2018-06-02T01:42:57.614Z,23.88
2018-06-02T01:43:10.041Z,23.88
2018-06-02T01:43:22.500Z,23.88
2018-06-02T01:43:34.909Z,23.88
2018-06-02T01:43:47.320Z,23.88
2018-06-02T01:43:59.737Z,23.88
2018-06-02T01:44:12.138Z,23.88
2018-06-02T01:44:24.559Z,23.88
2018-06-02T01:44:36.983Z,23.88
2018-06-02T01:44:49.386Z,23.88
2018-06-02T01:45:01.850Z,23.88
2018-06-02T01:45:14.281Z,23.88
2018-06-02T01:45:26.709Z,23.88
2018-06-02T01:45:39.132Z,23.88
2018-06-02T01:45:51.568Z,23.88
2018-06-02T01:46:04.009Z,23.88
2018-06-02T01:46:16.462Z,23.88
2018-06-02T01:46:28.897Z,23.88
2018-06-02T01:46:41.310Z,23.88
2018-06-02T01:46:53.757Z,23.88
2018-06-02T01:47:06.185Z,23.88
2018-06-02T01:47:18.634Z,23.88
2018-06-02T01:47:31.070Z,23.88
2018-06-02T01:47:43.499Z,23.88
2018-06-02T01:47:55.904Z,23.88
2018-06-02T01:48:08.343Z,23.88
2018-06-02T01:48:20.769Z,23.88
2018-06-02T01:48:33.367Z,23.88
2018-06-02T01:48:45.777Z,23.88
2018-06-02T01:48:58.214Z,23.88
2018-06-02T01:49:10.630Z,23.88
2018-06-02T01:49:23.050Z,23.88
2018-06-02T01:49:35.456Z,23.88
2018-06-02T01:49:47.873Z,23.88
2018-06-02T01:50:00.305Z,23.88
2018-06-02T01:50:12.728Z,23.88
2018-06-02T01:50:25.151Z,23.88
2018-06-02T01:50:37.567Z,23.88
2018-06-02T01:50:50.191Z,23.88
2018-06-02T01:51:02.609Z,23.88
2018-06-02T01:51:15.058Z,23.88
2018-06-02T01:51:27.478Z,22.6
2018-06-02T01:51:39.893Z,22.6
2018-06-02T01:51:52.332Z,22.6
2018-06-02T01:52:04.754Z,22.6
2018-06-02T01:52:17.174Z,22.6
2018-06-02T01:52:29.586Z,22.6
2018-06-02T01:52:42.188Z,22.6
2018-06-02T01:52:54.605Z,22.6
2018-06-02T01:53:07.047Z,22.6
2018-06-02T01:53:19.481Z,22.6
2018-06-02T01:53:31.910Z,22.6
2018-06-02T01:53:44.326Z,22.6
2018-06-02T01:53:56.766Z,22.6
2018-06-02T01:54:09.235Z,22.6
2018-06-02T01:54:21.661Z,22.6
2018-06-02T01:54:34.116Z,22.6
2018-06-02T01:54:46.510Z,22.6
2018-06-02T01:54:58.925Z,22.6
2018-06-02T01:55:11.335Z,22.6
2018-06-02T01:55:23.768Z,22.6
2018-06-02T01:55:36.217Z,22.6
2018-06-02T01:55:48.627Z,22.6
2018-06-02T01:56:01.056Z,22.6
2018-06-02T01:56:13.478Z,22.6
2018-06-02T01:56:25.930Z,22.6
2018-06-02T01:56:38.376Z,22.6
2018-06-02T01:56:50.800Z,22.6
2018-06-02T01:57:03.225Z,22.6
2018-06-02T01:57:15.629Z,22.6
2018-06-02T01:57:28.036Z,22.6
2018-06-02T01:57:40.599Z,22.6
2018-06-02T01:57:53.013Z,22.6
2018-06-02T01:58:05.476Z,22.6
2018-06-02T01:58:17.989Z,22.6
2018-06-02T01:58:30.417Z,22.6
2018-06-02T01:58:42.839Z,22.6
2018-06-02T01:58:55.270Z,22.6
2018-06-02T01:59:07.706Z,22.6
2018-06-02T01:59:20.199Z,22.6
2018-06-02T01:59:32.608Z,22.6
2018-06-02T01:59:45.122Z,22.6
2018-06-02T01:59:57.541Z,22.6
2018-06-02T02:00:10.014Z,22.6
2018-06-02T02:00:22.462Z,22.6
2018-06-02T02:00:34.970Z,22.6
2018-06-02T02:00:47.397Z,22.6
2018-06-02T02:00:59.851Z,22.6
2018-06-02T02:01:12.296Z,22.6
2018-06-02T02:01:24.741Z,27.27
2018-06-02T02:01:37.176Z,27.27
2018-06-02T02:01:49.630Z,27.27
2018-06-02T02:02:02.065Z,27.27
2018-06-02T02:02:14.505Z,27.27
2018-06-02T02:02:26.946Z,27.27
2018-06-02T02:02:39.402Z,27.27
2018-06-02T02:02:51.827Z,27.27
2018-06-02T02:03:04.269Z,27.27
2018-06-02T02:03:16.731Z,27.27
2018-06-02T02:03:29.180Z,27.27
2018-06-02T02:03:41.616Z,27.27
2018-06-02T02:03:54.051Z,27.27
2018-06-02T02:04:06.477Z,27.27
2018-06-02T02:04:18.914Z,27.27
2018-06-02T02:04:31.357Z,27.27
2018-06-02T02:04:43.819Z,27.27
2018-06-02T02:04:56.276Z,27.27
2018-06-02T02:05:08.724Z,27.27
2018-06-02T02:05:21.183Z,27.27
2018-06-02T02:05:33.640Z,27.27
2018-06-02T02:05:46.107Z,27.27
2018-06-02T02:05:58.523Z,27.27
2018-06-02T02:06:10.967Z,27.27
2018-06-02T02:06:23.396Z,27.27
2018-06-02T02:06:35.837Z,27.27
2018-06-02T02:06:48.293Z,27.27
2018-06-02T02:07:00.738Z,27.27
2018-06-02T02:07:13.152Z,27.27
2018-06-02T02:07:25.625Z,27.27
2018-06-02T02:07:38.053Z,27.27
2018-06-02T02:07:50.475Z,27.27
2018-06-02T02:08:02.883Z,27.27
2018-06-02T02:08:15.337Z,27.27
2018-06-02T02:08:27.760Z,27.27
2018-06-02T02:08:40.186Z,27.27
2018-06-02T02:08:52.601Z,27.27
2018-06-02T02:09:05.016Z,27.27
2018-06-02T02:09:17.460Z,27.27
2018-06-02T02:09:29.896Z,27.27
2018-06-02T02:09:42.327Z,27.27
2018-06-02T02:09:55.045Z,27.27
2018-06-02T02:10:07.466Z,27.27
2018-06-02T02:10:19.894Z,27.27
2018-06-02T02:10:32.368Z,27.27
2018-06-02T02:10:44.972Z,27.27
2018-06-02T02:10:57.404Z,27.27
2018-06-02T02:11:09.830Z,27.27
2018-06-02T02:11:22.245Z,27.27
2018-06-02T02:11:34.706Z,27.27
2018-06-02T02:11:47.122Z,27.27
2018-06-02T02:11:59.600Z,27.27
2018-06-02T02:12:12.083Z,27.27
2018-06-02T02:12:24.491Z,27.27
2018-06-02T02:12:36.937Z,27.27
2018-06-02T02:12:49.343Z,27.27
2018-06-02T02:13:01.758Z,27.27
2018-06-02T02:13:14.164Z,27.27
2018-06-02T02:13:26.592Z,27.27
2018-06-02T02:13:39.009Z,27.27
2018-06-02T02:13:51.424Z,27.27
2018-06-02T02:14:03.852Z,27.27
2018-06-02T02:14:16.273Z,27.27
2018-06-02T02:14:28.728Z,27.27
2018-06-02T02:14:41.146Z,27.27
2018-06-02T02:14:53.633Z,27.27
2018-06-02T02:15:06.063Z,27.27
2018-06-02T02:15:18.505Z,27.27
2018-06-02T02:15:30.921Z,27.27
2018-06-02T02:15:43.339Z,27.27
2018-06-02T02:15:55.753Z,27.27
2018-06-02T02:16:08.172Z,27.27
2018-06-02T02:16:20.587Z,27.27
2018-06-02T02:16:32.994Z,27.27
2018-06-02T02:16:45.421Z,27.27
2018-06-02T02:16:57.828Z,27.27
2018-06-02T02:17:10.242Z,27.27
2018-06-02T02:17:22.671Z,27.27
2018-06-02T02:17:35.095Z,27.27
2018-06-02T02:17:47.565Z,27.27
2018-06-02T02:18:00.011Z,27.27
2018-06-02T02:18:12.626Z,27.27
2018-06-02T02:18:25.084Z,27.27
2018-06-02T02:18:37.495Z,27.27
2018-06-02T02:18:49.903Z,27.27
2018-06-02T02:19:02.337Z,27.27
2018-06-02T02:19:14.771Z,27.27
2018-06-02T02:19:27.177Z,27.27
2018-06-02T02:19:39.605Z,27.27
2018-06-02T02:19:52.059Z,27.27
2018-06-02T02:20:04.513Z,27.27
2018-06-02T02:20:16.965Z,27.27
2018-06-02T02:20:29.373Z,27.27
2018-06-02T02:20:41.787Z,27.27
2018-06-02T02:20:54.204Z,27.27
2018-06-02T02:21:06.640Z,27.27
2018-06-02T02:21:19.101Z,27.27
2018-06-02T02:21:31.525Z,24.78
2018-06-02T02:21:43.971Z,24.78
2018-06-02T02:21:56.398Z,24.78
2018-06-02T02:22:08.815Z,24.78
2018-06-02T02:22:21.228Z,24.78
2018-06-02T02:22:33.647Z,24.78
2018-06-02T02:22:46.185Z,24.78
2018-06-02T02:22:58.596Z,24.78
2018-06-02T02:23:11.028Z,24.78
2018-06-02T02:23:23.446Z,24.78
2018-06-02T02:23:35.846Z,24.78
2018-06-02T02:23:48.246Z,24.78
2018-06-02T02:24:00.667Z,24.78
2018-06-02T02:24:13.097Z,24.78
2018-06-02T02:24:25.511Z,24.78
2018-06-02T02:24:37.969Z,24.78
2018-06-02T02:24:50.387Z,24.78
2018-06-02T02:25:02.804Z,24.78
2018-06-02T02:25:15.232Z,24.78
2018-06-02T02:25:27.686Z,24.78
2018-06-02T02:25:40.117Z,24.78
2018-06-02T02:25:52.674Z,24.78
2018-06-02T02:26:05.090Z,24.78
2018-06-02T02:26:17.571Z,24.78
2018-06-02T02:26:30.031Z,24.78
2018-06-02T02:26:42.467Z,24.78
2018-06-02T02:26:54.900Z,24.78
2018-06-02T02:27:07.323Z,24.78
2018-06-02T02:27:19.766Z,24.78
2018-06-02T02:27:32.202Z,24.78
2018-06-02T02:27:44.618Z,24.78
2018-06-02T02:27:57.027Z,24.78
2018-06-02T02:28:09.467Z,24.78
2018-06-02T02:28:21.872Z,24.78
2018-06-02T02:28:34.282Z,24.78
2018-06-02T02:28:46.683Z,24.78
2018-06-02T02:28:59.084Z,24.78
2018-06-02T02:29:11.499Z,24.78
2018-06-02T02:29:23.925Z,24.78
2018-06-02T02:29:36.328Z,24.78
2018-06-02T02:29:48.761Z,24.78
2018-06-02T02:30:01.190Z,24.78
2018-06-02T02:30:13.645Z,24.78
2018-06-02T02:30:26.142Z,24.78
2018-06-02T02:30:38.603Z,24.78
2018-06-02T02:30:51.135Z,24.78
2018-06-02T02:31:03.591Z,24.78
2018-06-02T02:31:16.009Z,24.78
2018-06-02T02:31:28.455Z,30.83
2018-06-02T02:31:40.935Z,30.83
2018-06-02T02:31:53.364Z,30.83
2018-06-02T02:32:05.798Z,30.83
2018-06-02T02:32:18.254Z,30.83
2018-06-02T02:32:30.709Z,30.83
2018-06-02T02:32:43.123Z,30.83
2018-06-02T02:32:55.568Z,30.83
2018-06-02T02:33:08.016Z,30.83
2018-06-02T02:33:20.459Z,30.83
2018-06-02T02:33:32.899Z,30.83
2018-06-02T02:33:45.326Z,30.83
2018-06-02T02:33:57.781Z,30.83
2018-06-02T02:34:10.233Z,30.83
2018-06-02T02:34:22.669Z,30.83
2018-06-02T02:34:35.175Z,30.83
2018-06-02T02:34:47.617Z,30.83
2018-06-02T02:35:00.331Z,30.83
2018-06-02T02:35:12.769Z,30.83
2018-06-02T02:35:25.209Z,30.83
2018-06-02T02:35:37.660Z,30.83
2018-06-02T02:35:50.157Z,30.83
2018-06-02T02:36:02.590Z,30.83
2018-06-02T02:36:15.048Z,30.83
2018-06-02T02:36:27.501Z,30.83
2018-06-02T02:36:39.968Z,30.83
2018-06-02T02:36:52.437Z,30.83
2018-06-02T02:37:04.877Z,30.83
2018-06-02T02:37:17.297Z,30.83
2018-06-02T02:37:29.748Z,30.83
2018-06-02T02:37:42.175Z,30.83
2018-06-02T02:37:54.590Z,30.83
2018-06-02T02:38:07.005Z,30.83
2018-06-02T02:38:19.497Z,30.83
2018-06-02T02:38:31.920Z,30.83
2018-06-02T02:38:44.345Z,30.83
2018-06-02T02:38:56.791Z,30.83
2018-06-02T02:39:09.272Z,30.83
2018-06-02T02:39:21.750Z,30.83
2018-06-02T02:39:34.180Z,30.83
2018-06-02T02:39:46.605Z,30.83
2018-06-02T02:39:59.055Z,30.83
2018-06-02T02:40:11.497Z,30.83
2018-06-02T02:40:23.957Z,30.83
2018-06-02T02:40:36.398Z,30.83
2018-06-02T02:40:48.900Z,30.83